createdAt,value
2022-12-14T00:02:44.891Z,7.60
2022-12-14T00:05:48.829Z,7.53
2022-12-14T00:08:55.327Z,21.03
2022-12-14T00:12:00.569Z,8.00
2022-12-14T00:15:04.664Z,6.90
2022-12-14T00:18:08.930Z,8.43
2022-12-14T00:21:14.889Z,10.23
2022-12-14T00:24:19.017Z,7.20
2022-12-14T00:27:24.233Z,6.90
2022-12-14T00:30:28.744Z,6.53
2022-12-14T00:33:32.917Z,6.83
2022-12-14T00:36:38.255Z,7.17
2022-12-14T00:39:42.070Z,9.73
2022-12-14T00:42:47.639Z,8.97
2022-12-14T00:45:52.015Z,9.00
2022-12-14T00:48:56.649Z,6.73
2022-12-14T00:52:00.516Z,6.80
2022-12-14T00:55:04.482Z,7.90
2022-12-14T00:58:11.533Z,6.87
2022-12-14T01:01:15.502Z,6.80
2022-12-14T01:04:21.688Z,7.50
2022-12-14T01:07:25.875Z,7.27
2022-12-14T01:10:30.116Z,7.70
2022-12-14T01:13:36.192Z,7.30
2022-12-14T01:16:40.069Z,7.43
2022-12-14T01:19:43.916Z,8.07
2022-12-14T01:22:56.066Z,7.87
2022-12-14T01:26:01.297Z,7.87
2022-12-14T01:29:07.575Z,8.30
2022-12-14T01:32:11.550Z,7.63
2022-12-14T01:35:15.664Z,8.33
2022-12-14T01:38:19.370Z,8.57
2022-12-14T01:41:27.362Z,7.30
2022-12-14T01:44:58.557Z,7.97
2022-12-14T01:48:05.117Z,8.60
2022-12-14T01:51:08.976Z,8.37
2022-12-14T01:54:15.718Z,9.43
2022-12-14T01:57:24.396Z,7.90
2022-12-14T02:00:30.540Z,8.47
2022-12-14T02:03:37.009Z,7.30
2022-12-14T02:06:44.269Z,7.90
2022-12-14T02:09:49.590Z,8.33
2022-12-14T02:13:00.771Z,7.93
2022-12-14T02:16:06.687Z,7.33
2022-12-14T02:19:10.597Z,7.20
2022-12-14T02:22:45.516Z,7.47
2022-12-14T02:26:37.939Z,7.37
2022-12-14T02:29:55.936Z,6.60
2022-12-14T02:33:14.548Z,6.93
2022-12-14T02:36:27.196Z,6.77
2022-12-14T02:39:42.833Z,6.93
2022-12-14T02:42:56.296Z,7.83
2022-12-14T02:46:08.496Z,7.53
2022-12-14T02:49:16.496Z,7.60
2022-12-14T02:52:30.157Z,7.37
2022-12-14T02:55:38.576Z,6.93
2022-12-14T02:58:46.876Z,7.07
2022-12-14T03:01:54.032Z,7.70
2022-12-14T03:04:58.069Z,7.57
2022-12-14T03:08:04.909Z,8.53
2022-12-14T03:11:09.190Z,6.90
2022-12-14T03:14:20.421Z,7.63
2022-12-14T03:17:29.517Z,7.50
2022-12-14T03:20:37.157Z,7.20
2022-12-14T03:23:44.567Z,7.70
2022-12-14T03:26:55.056Z,6.57
2022-12-14T03:30:02.899Z,7.70
2022-12-14T03:33:14.628Z,6.00
2022-12-14T03:36:23.514Z,6.87
2022-12-14T03:39:32.081Z,7.37
2022-12-14T03:42:43.225Z,6.57
2022-12-14T03:46:00.922Z,7.20
2022-12-14T03:49:14.586Z,10.20
2022-12-14T03:52:26.698Z,7.20
2022-12-14T03:55:38.370Z,9.20
2022-12-14T03:58:56.804Z,9.93
2022-12-14T04:02:05.463Z,10.93
2022-12-14T04:05:18.444Z,8.53
2022-12-14T04:08:28.592Z,13.63
2022-12-14T04:11:55.356Z,9.13
2022-12-14T04:15:28.409Z,8.40
2022-12-14T04:18:59.531Z,10.80
2022-12-14T04:22:10.589Z,7.70
2022-12-14T04:25:36.191Z,8.33
2022-12-14T04:29:04.238Z,7.90
2022-12-14T04:32:13.115Z,7.53
2022-12-14T04:35:22.377Z,7.70
2022-12-14T04:38:34.715Z,8.13
2022-12-14T04:41:43.406Z,7.70
2022-12-14T04:44:52.020Z,7.70
2022-12-14T04:48:01.990Z,8.80
2022-12-14T04:51:12.316Z,8.80
2022-12-14T04:54:25.150Z,10.07
2022-12-14T04:57:35.556Z,8.87
2022-12-14T05:00:54.282Z,14.80
2022-12-14T05:04:12.483Z,12.27
2022-12-14T05:07:24.696Z,9.13
2022-12-14T05:10:37.917Z,12.20
2022-12-14T05:13:48.850Z,11.53
2022-12-14T05:16:53.141Z,13.40
2022-12-14T05:19:57.456Z,9.00
2022-12-14T05:23:02.391Z,11.50
2022-12-14T05:26:07.650Z,10.27
2022-12-14T05:29:11.583Z,10.90
2022-12-14T05:32:15.396Z,9.97
2022-12-14T05:35:19.357Z,10.20
2022-12-14T05:38:23.172Z,10.43
2022-12-14T05:41:28.417Z,11.80
2022-12-14T05:44:32.452Z,13.47
2022-12-14T05:47:36.389Z,9.37
2022-12-14T05:50:40.195Z,9.13
2022-12-14T05:53:44.253Z,9.67
2022-12-14T05:56:49.449Z,17.90
2022-12-14T05:59:53.257Z,22.17
2022-12-14T06:02:57.182Z,16.40
2022-12-14T06:06:04.395Z,19.53
2022-12-14T06:09:09.189Z,12.40
2022-12-14T06:12:14.549Z,13.80
2022-12-14T06:15:18.617Z,8.17
2022-12-14T06:18:24.511Z,8.63
2022-12-14T06:21:30.874Z,8.53
2022-12-14T06:24:34.756Z,9.70
2022-12-14T06:27:39.918Z,9.90
2022-12-14T06:30:43.996Z,8.97
2022-12-14T06:33:49.609Z,10.53
2022-12-14T06:36:53.456Z,9.90
2022-12-14T06:39:57.317Z,11.10
2022-12-14T06:43:02.658Z,9.87
2022-12-14T06:46:14.787Z,10.37
2022-12-14T06:49:19.477Z,10.30
2022-12-14T06:52:26.656Z,26.60
2022-12-14T06:55:31.075Z,13.97
2022-12-14T06:58:36.450Z,10.03
2022-12-14T07:01:41.256Z,9.50
2022-12-14T07:04:45.250Z,9.70
2022-12-14T07:07:49.396Z,10.20
2022-12-14T07:10:57.517Z,9.93
2022-12-14T07:14:07.499Z,10.17
2022-12-14T07:17:11.213Z,9.40
2022-12-14T07:20:15.718Z,9.80
2022-12-14T07:23:23.399Z,10.70
2022-12-14T07:26:30.869Z,9.43
2022-12-14T07:29:36.536Z,11.97
2022-12-14T07:32:40.437Z,11.37
2022-12-14T07:35:44.257Z,10.27
2022-12-14T07:38:49.821Z,9.77
2022-12-14T07:41:54.849Z,9.53
2022-12-14T07:45:01.458Z,9.23
2022-12-14T07:48:07.752Z,9.50
2022-12-14T07:51:13.675Z,11.90
2022-12-14T07:54:17.616Z,10.73
2022-12-14T07:57:21.418Z,9.80
2022-12-14T08:00:26.912Z,7.80
2022-12-14T08:03:31.006Z,8.97
2022-12-14T08:06:36.132Z,9.60
2022-12-14T08:09:40.035Z,10.00
2022-12-14T08:12:43.832Z,8.33
2022-12-14T08:15:49.015Z,9.73
2022-12-14T08:18:55.030Z,7.47
2022-12-14T08:21:58.828Z,7.77
2022-12-14T08:25:02.688Z,7.70
2022-12-14T08:28:06.959Z,9.53
2022-12-14T08:31:14.919Z,7.20
2022-12-14T08:34:23.088Z,8.13
2022-12-14T08:37:26.996Z,7.80
2022-12-14T08:40:31.090Z,7.97
2022-12-14T08:43:35.176Z,9.17
2022-12-14T08:46:40.630Z,9.80
2022-12-14T08:49:44.497Z,10.23
2022-12-14T08:52:49.030Z,7.80
2022-12-14T08:55:53.111Z,7.97
2022-12-14T08:58:58.056Z,8.07
2022-12-14T09:02:03.603Z,8.27
2022-12-14T09:05:08.250Z,9.03
2022-12-14T09:08:12.156Z,9.17
2022-12-14T09:11:17.569Z,12.97
2022-12-14T09:14:21.652Z,10.40
2022-12-14T09:17:27.017Z,10.43
2022-12-14T09:20:30.869Z,8.53
2022-12-14T09:23:35.788Z,10.67
2022-12-14T09:26:39.530Z,19.93
2022-12-14T09:29:43.377Z,10.87
2022-12-14T09:32:50.610Z,10.13
2022-12-14T09:35:54.859Z,9.83
2022-12-14T09:38:59.777Z,9.67
2022-12-14T09:42:15.409Z,9.60
2022-12-14T09:45:24.516Z,8.60
2022-12-14T09:48:30.090Z,8.37
2022-12-14T09:51:37.404Z,9.43
2022-12-14T09:54:41.896Z,7.53
2022-12-14T09:57:47.010Z,7.47
2022-12-14T10:00:57.651Z,8.60
2022-12-14T10:04:12.958Z,8.43
2022-12-14T10:07:22.623Z,8.40
2022-12-14T10:10:30.573Z,8.37
2022-12-14T10:13:46.677Z,9.67
2022-12-14T10:16:56.555Z,8.63
2022-12-14T10:20:06.595Z,8.70
2022-12-14T10:23:21.029Z,8.93
2022-12-14T10:26:33.791Z,9.80
2022-12-14T10:29:43.609Z,8.33
2022-12-14T10:32:52.606Z,8.70
2022-12-14T10:36:06.709Z,8.67
2022-12-14T10:39:24.129Z,8.87
2022-12-14T10:42:38.778Z,8.17
2022-12-14T10:45:47.285Z,9.20
2022-12-14T10:48:58.436Z,8.40
2022-12-14T10:52:07.469Z,8.40
2022-12-14T10:55:16.889Z,8.10
2022-12-14T10:58:20.657Z,8.23
2022-12-14T11:01:24.619Z,9.27
2022-12-14T11:04:35.131Z,9.10
2022-12-14T11:07:43.636Z,8.80
2022-12-14T11:10:47.549Z,9.13
2022-12-14T11:13:53.755Z,8.80
2022-12-14T11:16:57.865Z,9.33
2022-12-14T11:20:18.549Z,7.70
2022-12-14T11:23:28.337Z,8.33
2022-12-14T11:26:37.315Z,9.47
2022-12-14T11:29:45.956Z,7.70
2022-12-14T11:32:50.415Z,7.80
2022-12-14T11:35:54.777Z,8.00
2022-12-14T11:39:01.954Z,7.97
2022-12-14T11:42:07.040Z,7.70
2022-12-14T11:45:29.856Z,7.47
2022-12-14T11:48:37.071Z,7.90
2022-12-14T11:51:56.084Z,7.83
2022-12-14T11:55:13.878Z,8.10
2022-12-14T11:58:20.836Z,7.80
2022-12-14T12:01:27.422Z,8.33
2022-12-14T12:04:32.017Z,8.17
2022-12-14T12:07:38.816Z,8.07
2022-12-14T12:10:49.937Z,7.90
2022-12-14T12:14:00.578Z,7.53
2022-12-14T12:17:18.416Z,8.23
2022-12-14T12:20:31.537Z,7.87
2022-12-14T12:23:43.096Z,7.30
2022-12-14T12:26:52.444Z,8.70
2022-12-14T12:30:03.936Z,8.07
2022-12-14T12:33:21.716Z,8.60
2022-12-14T12:36:26.236Z,7.30
2022-12-14T12:39:31.889Z,10.80
2022-12-14T12:42:47.417Z,8.83
2022-12-14T12:45:55.973Z,8.17
2022-12-14T12:49:06.616Z,8.27
2022-12-14T12:52:20.890Z,7.47
2022-12-14T12:55:27.154Z,8.13
2022-12-14T12:58:34.870Z,8.30
2022-12-14T13:01:42.479Z,8.97
2022-12-14T13:04:52.716Z,8.23
2022-12-14T13:08:01.120Z,9.47
2022-12-14T13:11:28.338Z,8.23
2022-12-14T13:14:39.795Z,7.73
2022-12-14T13:17:49.449Z,7.80
2022-12-14T13:20:53.856Z,8.63
2022-12-14T13:23:58.420Z,8.37
2022-12-14T13:27:31.077Z,8.10
2022-12-14T13:30:49.712Z,8.77
2022-12-14T13:34:20.607Z,8.50
2022-12-14T13:37:46.366Z,8.70
2022-12-14T13:41:20.515Z,8.73
2022-12-14T13:44:46.313Z,9.03
2022-12-14T13:47:55.665Z,8.80
2022-12-14T13:51:03.467Z,8.30
2022-12-14T13:54:19.747Z,9.13
2022-12-14T13:57:26.813Z,8.70
2022-12-14T14:01:01.726Z,9.07
2022-12-14T14:07:52.062Z,10.03
2022-12-14T14:11:13.916Z,9.43
2022-12-14T14:14:30.996Z,9.47
2022-12-14T14:17:39.902Z,9.77
2022-12-14T14:20:46.758Z,9.13
2022-12-14T14:23:59.272Z,8.57
2022-12-14T14:27:12.493Z,8.77
2022-12-14T14:30:28.086Z,13.50
2022-12-14T14:33:46.591Z,9.17
2022-12-14T14:36:52.571Z,8.50
2022-12-14T14:40:18.339Z,9.10
2022-12-14T14:43:30.703Z,8.67
2022-12-14T14:46:39.316Z,8.03
2022-12-14T14:49:46.369Z,7.70
2022-12-14T14:53:02.392Z,8.13
2022-12-14T14:56:14.653Z,9.57
2022-12-14T14:59:50.990Z,9.73
2022-12-14T15:02:56.101Z,12.77
2022-12-14T15:06:00.993Z,9.93
2022-12-14T15:09:08.813Z,7.87
2022-12-14T15:12:31.202Z,8.60
2022-12-14T15:15:38.889Z,8.93
2022-12-14T15:18:42.653Z,8.60
2022-12-14T15:21:47.645Z,9.20
2022-12-14T15:24:53.965Z,9.33
2022-12-14T15:28:05.698Z,9.30
2022-12-14T15:31:09.623Z,9.53
2022-12-14T15:34:17.975Z,9.77
2022-12-14T15:37:28.331Z,9.90
2022-12-14T15:40:32.926Z,9.83
2022-12-14T15:43:45.192Z,9.87
2022-12-14T15:46:56.515Z,10.50
2022-12-14T15:50:19.352Z,12.93
2022-12-14T15:53:32.124Z,10.57
2022-12-14T15:56:39.711Z,11.97
2022-12-14T15:59:47.486Z,11.67
2022-12-14T16:02:53.817Z,11.40
2022-12-14T16:05:59.160Z,9.23
2022-12-14T16:09:07.197Z,9.67
2022-12-14T16:12:18.535Z,12.07
2022-12-14T16:15:25.978Z,17.70
2022-12-14T16:18:29.785Z,16.43
2022-12-14T16:21:35.875Z,17.30
2022-12-14T16:24:40.116Z,21.97
2022-12-14T16:27:46.163Z,44.17
2022-12-14T16:30:59.546Z,19.43
2022-12-14T16:34:09.892Z,19.37
2022-12-14T16:37:34.583Z,20.43
2022-12-14T16:40:41.125Z,28.53
2022-12-14T16:43:57.356Z,22.10
2022-12-14T16:47:26.165Z,15.87
2022-12-14T16:53:54.876Z,15.63
2022-12-14T16:57:04.471Z,12.30
2022-12-14T17:00:20.481Z,11.27
2022-12-14T17:03:26.052Z,11.87
2022-12-14T17:06:38.186Z,12.90
2022-12-14T17:09:41.977Z,16.00
2022-12-14T17:12:46.092Z,16.17
2022-12-14T17:15:58.754Z,15.43
2022-12-14T17:19:05.145Z,14.03
2022-12-14T17:22:17.762Z,15.80
2022-12-14T17:25:22.436Z,16.90
2022-12-14T17:28:29.255Z,19.90
2022-12-14T17:31:32.942Z,15.83
2022-12-14T17:34:38.165Z,22.23
2022-12-14T17:37:41.915Z,21.83
2022-12-14T17:40:47.167Z,19.80
2022-12-14T17:43:56.666Z,25.23
2022-12-14T17:47:01.032Z,19.00
2022-12-14T17:50:07.187Z,18.73
2022-12-14T17:53:14.804Z,13.70
2022-12-14T17:56:18.579Z,17.03
2022-12-14T17:59:22.244Z,15.50
2022-12-14T18:02:29.017Z,15.97
2022-12-14T18:05:34.947Z,15.77
2022-12-14T18:08:38.616Z,15.63
2022-12-14T18:12:13.958Z,22.07
2022-12-14T18:15:11.946Z,25.70
2022-12-14T18:18:16.086Z,25.10
2022-12-14T18:21:24.103Z,26.27
2022-12-14T18:24:27.932Z,25.13
2022-12-14T18:27:31.750Z,16.73
2022-12-14T18:30:43.093Z,16.43
2022-12-14T18:33:49.812Z,14.77
2022-12-14T18:36:55.102Z,15.13
2022-12-14T18:39:58.885Z,14.90
2022-12-14T18:43:02.626Z,12.83
2022-12-14T18:46:06.684Z,12.80
2022-12-14T18:49:10.498Z,11.90
2022-12-14T18:52:16.147Z,12.60
2022-12-14T18:55:22.403Z,13.17
2022-12-14T18:58:28.254Z,16.00
2022-12-14T19:01:32.152Z,15.97
2022-12-14T19:04:35.970Z,14.73
2022-12-14T19:07:41.174Z,15.77
2022-12-14T19:10:48.060Z,14.73
2022-12-14T19:13:51.946Z,15.20
2022-12-14T19:16:55.656Z,17.13
2022-12-14T19:19:59.356Z,16.63
2022-12-14T19:23:04.567Z,15.67
2022-12-14T19:26:08.372Z,16.50
2022-12-14T19:29:12.116Z,16.90
2022-12-14T19:32:15.796Z,17.03
2022-12-14T19:35:20.306Z,17.00
2022-12-14T19:38:25.585Z,18.70
2022-12-14T19:41:29.324Z,18.93
2022-12-14T19:44:35.082Z,18.93
2022-12-14T19:47:38.956Z,21.20
2022-12-14T19:50:42.751Z,20.90
2022-12-14T19:53:56.211Z,21.77
2022-12-14T19:56:59.892Z,21.27
2022-12-14T20:00:03.992Z,22.17
2022-12-14T20:03:13.471Z,23.73
2022-12-14T20:06:17.304Z,99.97
2022-12-14T20:09:22.542Z,128.50
2022-12-14T20:12:26.397Z,106.27
2022-12-14T20:15:30.187Z,86.90
2022-12-14T20:18:34.054Z,137.80
2022-12-14T20:21:37.823Z,42.63
2022-12-14T20:24:43.286Z,61.87
2022-12-14T20:27:46.987Z,25.17
2022-12-14T20:30:51.043Z,80.97
2022-12-14T20:33:55.193Z,27.93
2022-12-14T20:36:59.046Z,119.63
2022-12-14T20:40:04.422Z,56.67
2022-12-14T20:43:08.472Z,73.30
2022-12-14T20:46:26.528Z,29.33
2022-12-14T20:49:33.043Z,35.37
2022-12-14T20:52:36.769Z,34.37
2022-12-14T20:55:41.886Z,29.47
2022-12-14T20:58:49.526Z,62.10
2022-12-14T21:01:56.145Z,44.37
2022-12-14T21:05:00.622Z,108.17
2022-12-14T21:08:04.387Z,59.10
2022-12-14T21:11:23.389Z,36.00
2022-12-14T21:14:29.699Z,41.83
2022-12-14T21:17:33.933Z,110.40
2022-12-14T21:20:38.352Z,96.83
2022-12-14T21:23:42.684Z,34.53
2022-12-14T21:26:47.861Z,51.10
2022-12-14T21:29:54.077Z,48.17
2022-12-14T21:32:58.870Z,30.97
2022-12-14T21:36:07.718Z,35.97
2022-12-14T21:39:13.311Z,42.53
2022-12-14T21:42:20.740Z,50.27
2022-12-14T21:45:24.473Z,33.57
2022-12-14T21:48:28.312Z,47.77
2022-12-14T21:51:32.065Z,35.10
2022-12-14T21:54:36.052Z,31.77
2022-12-14T21:57:58.703Z,51.43
2022-12-14T22:01:08.377Z,43.50
2022-12-14T22:04:12.332Z,46.17
2022-12-14T22:07:17.286Z,34.23
2022-12-14T22:10:24.893Z,33.43
2022-12-14T22:13:30.924Z,44.27
2022-12-14T22:16:36.189Z,51.97
2022-12-14T22:19:39.945Z,76.93
2022-12-14T22:22:43.602Z,29.80
2022-12-14T22:25:51.245Z,38.80
2022-12-14T22:28:56.465Z,31.43
2022-12-14T22:32:00.256Z,33.00
2022-12-14T22:35:04.120Z,28.33
2022-12-14T22:38:07.893Z,49.87
2022-12-14T22:41:14.313Z,30.00
2022-12-14T22:44:19.536Z,31.20
2022-12-14T22:47:23.244Z,29.00
2022-12-14T22:50:26.856Z,25.93
2022-12-14T22:53:31.779Z,27.23
2022-12-14T22:56:40.555Z,27.77
2022-12-14T22:59:51.355Z,34.03
2022-12-14T23:02:56.246Z,26.53
2022-12-14T23:06:02.226Z,29.87
2022-12-14T23:09:24.190Z,26.07
2022-12-14T23:12:44.957Z,25.67
2022-12-14T23:16:07.551Z,29.07
2022-12-14T23:19:28.383Z,28.43
2022-12-14T23:22:49.605Z,39.83
2022-12-14T23:26:11.225Z,30.37
2022-12-14T23:29:32.249Z,28.20
2022-12-14T23:32:55.101Z,25.93
2022-12-14T23:36:19.773Z,23.63
2022-12-14T23:39:40.977Z,25.20
2022-12-14T23:43:02.033Z,26.50
2022-12-14T23:46:24.021Z,25.73
2022-12-14T23:49:46.948Z,30.43
2022-12-14T23:53:07.606Z,22.13
2022-12-14T23:56:28.555Z,22.47
2022-12-14T23:59:49.930Z,25.07
